Aviation Digital Data Service (ADDS)

Output produced by TAFs form (2259 UTC 23 July 2016)
found at http://www.aviationweather.gov/adds/tafs/
 
KPOU 231720Z 2318/2418 29010G18KT P6SM SCT050 SCT080 
     FM232300 32008KT P6SM SKC 
     FM240500 VRB03KT 5SM BR SKC 
     FM241200 30005KT P6SM SKC